Terminal Aerodrome Forecast
Issued by NWS

Home | Current Version | Previous Version | Text Only | Print | Product List | Glossary On
Versions: 1 2 3 4 5 6 7 8 9 10 11 12 13 14 15 16 17 18 19 20
584
FTUS46 KLOX 262046 AAA
TAFSBA
TAF AMD
KSBA 262046Z 2621/2718 24008KT P6SM SCT028
      TEMPO 2621/2623 BKN027
     FM262300 25009KT P6SM SCT025
     FM270300 VRB03KT P6SM SKC
     FM270500 VRB03KT P6SM OVC010=

USA.gov is the U.S. government's official web portal to all federal, state and local government web resources and services.